Time;durP1;ratioP1;P1;durP2;ratioP2;P2;SDS_P1;SDS_P2;PMS_P1;PMS_P2;Temp;Humidity;BMP_temperature;BMP_pressure;BME280_temperature;BME280_humidity;BME280_pressure;Samples;Min_cycle;Max_cycle;Signal;HPM_P1;HPM_P2
2022/08/12 00:45:08;;;;;;;8.20;2.40;;;;;;;19.84;49.71;101528.41;5016236;28;20049;-77
2022/08/12 00:47:37;;;;;;;7.40;2.08;;;;;;;19.84;50.00;101532.91;4998474;28;20050;-77
2022/08/12 00:50:05;;;;;;;3.25;2.00;;;;;;;19.82;49.87;101533.03;5016833;28;20041;-77
2022/08/12 00:52:33;;;;;;;5.53;2.38;;;;;;;19.81;49.81;101535.81;5025385;28;20049;-78
2022/08/12 00:55:03;;;;;;;5.88;2.47;;;;;;;19.78;49.40;101530.75;5016230;28;20253;-77
2022/08/12 00:57:35;;;;;;;7.40;2.63;;;;;;;19.78;49.22;101533.41;5033832;28;20049;-77
2022/08/12 01:00:07;;;;;;;6.80;2.50;;;;;;;19.76;49.50;101533.53;5017946;28;20046;-77
2022/08/12 01:02:38;;;;;;;8.90;2.55;;;;;;;19.75;49.86;101528.31;4998316;28;20049;-77
2022/08/12 01:13:35;;;;;;;6.32;3.00;;;;;;;19.62;49.85;101536.50;5023857;28;20061;-77
2022/08/12 01:16:05;;;;;;;4.18;2.78;;;;;;;19.58;49.91;101529.69;5035451;28;20037;-77
2022/08/12 01:18:38;;;;;;;12.60;2.90;;;;;;;19.55;51.04;101533.47;5021416;28;20104;-77
2022/08/12 01:21:16;;;;;;;7.03;2.70;;;;;;;19.51;50.59;101531.19;5057687;28;20044;-77
2022/08/12 01:24:05;;;;;;;7.60;2.40;;;;;;;19.47;50.71;101527.91;5005373;28;20053;-78
2022/08/12 01:26:53;;;;;;;4.68;2.60;;;;;;;19.43;50.68;101524.63;5035454;28;20064;-76
2022/08/12 01:29:28;;;;;;;7.07;2.70;;;;;;;19.38;50.65;101526.84;5019903;28;20050;-77
2022/08/12 01:32:07;;;;;;;4.45;2.53;;;;;;;19.36;50.38;101528.81;5009015;28;20052;-77
2022/08/12 01:34:37;;;;;;;4.95;2.90;;;;;;;19.35;51.06;101531.56;5030865;28;20053;-76
2022/08/12 01:37:06;;;;;;;6.70;1.95;;;;;;;19.33;50.56;101523.69;5008076;28;20524;-77
2022/08/12 01:39:38;;;;;;;10.10;3.00;;;;;;;19.30;50.37;101525.75;5035417;28;20080;-76
2022/08/12 01:42:31;;;;;;;3.13;2.03;;;;;;;19.28;50.80;101531.25;5023958;28;20060;-77
2022/08/12 01:44:59;;;;;;;4.93;2.25;;;;;;;19.26;51.00;101532.31;5020200;28;20049;-76
2022/08/12 01:47:29;;;;;;;5.97;2.60;;;;;;;19.22;50.79;101526.38;5018536;28;20049;-77
2022/08/12 01:50:11;;;;;;;7.43;2.70;;;;;;;19.19;50.85;101532.84;5019538;28;20515;-77
2022/08/12 01:52:54;;;;;;;4.38;2.22;;;;;;;19.15;50.90;101531.38;5031740;28;20049;-77
2022/08/12 01:55:32;;;;;;;6.43;2.17;;;;;;;19.14;51.12;101523.50;5029248;28;20053;-76
2022/08/12 01:59:44;;;;;;;3.22;2.03;;;;;;;19.12;51.22;101528.94;5013088;28;20384;-77
2022/08/12 02:01:18;;;;;;;7.03;2.45;;;;;;;19.08;51.05;101532.84;5025914;28;20085;-77
2022/08/12 02:13:02;;;;;;;5.35;2.30;;;;;;;18.98;51.11;101529.22;5023208;28;20057;-77
2022/08/12 02:15:55;;;;;;;4.57;2.40;;;;;;;18.96;50.96;101525.84;5025656;28;20060;-78
2022/08/12 02:18:50;;;;;;;4.55;2.50;;;;;;;18.95;50.96;101524.09;5035685;28;20037;-76
2022/08/12 02:21:20;;;;;;;3.30;2.55;;;;;;;18.92;50.88;101519.88;5019270;28;20049;-76
2022/08/12 02:23:48;;;;;;;5.80;2.92;;;;;;;18.92;50.88;101524.38;5039250;28;20055;-76
2022/08/12 02:26:16;;;;;;;4.45;2.03;;;;;;;18.89;50.81;101513.94;5019876;28;20045;-76
2022/08/12 02:28:44;;;;;;;4.10;2.28;;;;;;;18.87;50.96;101523.91;5005208;28;20094;-76
2022/08/12 02:31:11;;;;;;;6.70;2.42;;;;;;;18.83;51.45;101520.63;5032881;28;20049;-77
2022/08/12 02:33:40;;;;;;;8.63;2.30;;;;;;;18.81;51.62;101524.38;5012720;28;20634;-77
2022/08/12 02:36:07;;;;;;;5.38;2.50;;;;;;;18.75;52.21;101515.03;5035771;28;20054;-77
2022/08/12 02:38:35;;;;;;;6.43;2.70;;;;;;;18.72;51.71;101518.78;5050635;28;20039;-77
2022/08/12 02:41:04;;;;;;;8.43;2.58;;;;;;;18.71;51.88;101517.09;5019475;28;20391;-77
2022/08/12 02:43:52;;;;;;;4.75;2.33;;;;;;;18.68;51.84;101519.97;5036416;28;20053;-77
2022/08/12 02:46:27;;;;;;;5.38;2.38;;;;;;;18.67;51.99;101518.28;5017670;28;20061;-77
2022/08/12 02:48:59;;;;;;;3.85;2.10;;;;;;;18.62;51.73;101509.78;5022063;28;20045;-77
2022/08/12 02:51:33;;;;;;;4.97;2.60;;;;;;;18.61;51.75;101518.75;5019756;28;20052;-77
2022/08/12 02:54:02;;;;;;;4.88;2.45;;;;;;;18.56;51.77;101507.63;5040545;28;20045;-77
2022/08/12 02:56:39;;;;;;;6.43;3.20;;;;;;;18.55;51.55;101515.72;5029236;28;20600;-77
2022/08/12 02:59:10;;;;;;;7.85;2.45;;;;;;;18.53;51.61;101515.00;5023441;28;20048;-77
2022/08/12 03:01:49;;;;;;;7.00;2.75;;;;;;;18.50;51.34;101507.22;5019407;28;20490;-77
2022/08/12 03:04:23;;;;;;;4.47;2.45;;;;;;;18.49;52.03;101511.72;5018059;28;20041;-77
2022/08/12 03:07:01;;;;;;;5.55;2.60;;;;;;;18.45;51.49;101508.44;5031690;28;20045;-77
2022/08/12 03:09:31;;;;;;;10.50;2.55;;;;;;;18.43;52.02;101504.22;5021561;28;20156;-77
2022/08/12 03:12:19;;;;;;;7.80;2.85;;;;;;;18.39;52.03;101508.94;5004874;28;20096;-77
2022/08/12 03:14:50;;;;;;;9.07;2.45;;;;;;;18.38;52.12;101512.56;5027617;28;20053;-76
2022/08/12 03:17:38;;;;;;;6.82;2.35;;;;;;;18.36;52.01;101514.47;5017021;28;20099;-77
2022/08/12 03:20:06;;;;;;;6.68;2.65;;;;;;;18.33;51.93;101521.91;5019181;28;20288;-76
2022/08/12 03:22:40;;;;;;;9.27;2.80;;;;;;;18.32;52.35;101517.50;5019588;28;20080;-76
2022/08/12 03:25:17;;;;;;;3.17;2.45;;;;;;;18.30;52.17;101522.97;5018894;28;20458;-77
2022/08/12 03:27:48;;;;;;;5.10;2.70;;;;;;;18.28;52.60;101526.69;5040742;28;20100;-77
2022/08/12 03:30:19;;;;;;;5.53;2.58;;;;;;;18.25;52.43;101527.81;5010574;28;20041;-77
2022/08/12 03:32:47;;;;;;;6.25;2.50;;;;;;;18.23;52.03;101522.56;5036160;28;20048;-77
2022/08/12 03:35:23;;;;;;;3.90;1.98;;;;;;;18.22;52.04;101520.88;5025053;23;20042;-57
2022/08/12 03:38:10;;;;;;;7.03;3.08;;;;;;;18.20;51.81;101512.16;4992515;28;20050;-56
2022/08/12 04:01:04;;;;;;;7.82;2.53;;;;;;;18.23;51.66;101527.06;4962407;28;20047;-55
2022/08/12 04:03:51;;;;;;;7.93;2.95;;;;;;;18.23;51.60;101527.06;4970140;28;20074;-56
2022/08/12 04:06:23;;;;;;;6.38;2.55;;;;;;;18.24;52.26;101531.44;4961550;28;20086;-55
2022/08/12 04:09:04;;;;;;;5.20;2.78;;;;;;;18.23;52.05;101532.38;4972419;28;20059;-57
2022/08/12 04:14:30;;;;;;;8.70;3.03;;;;;;;18.28;51.78;101537.38;4970898;28;20077;-54
2022/08/12 04:16:57;;;;;;;3.65;2.67;;;;;;;18.29;51.94;101533.75;4969133;28;20138;-58
2022/08/12 04:19:25;;;;;;;5.03;2.25;;;;;;;18.30;51.78;101538.13;4970809;28;20404;-57
2022/08/12 04:21:56;;;;;;;4.00;2.10;;;;;;;18.32;52.05;101534.34;4969898;28;20255;-56
2022/08/12 04:24:33;;;;;;;4.63;2.58;;;;;;;18.39;52.71;101534.75;4970980;28;20070;-53
2022/08/12 04:27:07;;;;;;;6.20;2.25;;;;;;;18.44;52.27;101535.22;4970058;28;20061;-57
2022/08/12 04:29:36;;;;;;;6.35;2.50;;;;;;;18.44;51.64;101538.75;4971328;28;20046;-59
2022/08/12 04:32:24;;;;;;;6.45;3.13;;;;;;;18.48;51.31;101542.03;4968854;28;20055;-57
2022/08/12 04:34:51;;;;;;;6.57;3.05;;;;;;;18.53;51.65;101536.34;4969534;28;20049;-52
2022/08/12 04:37:18;;;;;;;7.20;2.65;;;;;;;18.59;51.48;101541.19;4971165;28;20053;-56
2022/08/12 04:39:47;;;;;;;6.20;2.80;;;;;;;18.64;51.04;101541.66;4968634;28;20049;-57
2022/08/12 04:42:14;;;;;;;6.65;2.50;;;;;;;18.70;51.02;101541.22;4937969;28;20043;-55
2022/08/12 04:44:43;;;;;;;7.63;2.50;;;;;;;18.71;51.02;101537.59;4970062;28;20053;-53
2022/08/12 04:47:14;;;;;;;7.65;2.65;;;;;;;18.72;50.65;101544.59;4970639;28;20058;-56
2022/08/12 04:49:44;;;;;;;6.93;2.83;;;;;;;18.78;50.63;101543.28;4952678;28;20063;-58
2022/08/12 04:52:11;;;;;;;15.88;3.50;;;;;;;18.80;50.64;101539.53;4971173;28;20062;-59
2022/08/12 04:54:38;;;;;;;19.92;3.47;;;;;;;18.85;50.48;101541.81;4970086;28;20174;-58
2022/08/12 04:57:08;;;;;;;13.20;3.70;;;;;;;18.91;50.36;101541.34;4969747;28;20058;-57
2022/08/12 04:59:36;;;;;;;16.85;4.05;;;;;;;18.95;49.97;101542.78;4970765;28;20055;-54
2022/08/12 05:02:18;;;;;;;12.60;3.15;;;;;;;19.01;50.30;101547.66;4978525;28;20042;-58
2022/08/12 05:04:54;;;;;;;18.42;3.22;;;;;;;19.05;49.78;101542.91;4963101;28;20057;-57
2022/08/12 05:07:27;;;;;;;12.82;3.00;;;;;;;19.12;49.99;101544.13;4981571;28;20047;-57
2022/08/12 05:09:54;;;;;;;9.95;3.20;;;;;;;19.19;50.02;101538.16;4981957;28;20065;-59
2022/08/12 05:12:37;;;;;;;9.30;3.03;;;;;;;19.25;49.44;101535.97;4982557;28;20074;-59
2022/08/12 05:15:05;;;;;;;10.05;2.85;;;;;;;19.32;49.54;101539.81;4962450;28;20046;-59
2022/08/12 05:17:54;;;;;;;11.13;3.65;;;;;;;19.39;49.25;101538.38;4971444;28;20050;-58
2022/08/12 05:20:21;;;;;;;8.35;2.90;;;;;;;19.47;49.26;101539.44;4969583;28;20051;-59
2022/08/12 05:22:49;;;;;;;7.28;3.15;;;;;;;19.55;49.27;101543.31;4970670;28;20055;-56
2022/08/12 05:25:23;;;;;;;8.05;2.92;;;;;;;19.63;49.15;101547.09;4969190;28;20054;-52
2022/08/12 05:27:50;;;;;;;12.25;2.60;;;;;;;19.68;48.94;101539.53;4967141;28;20051;-55
2022/08/12 05:30:27;;;;;;;8.27;2.80;;;;;;;19.69;48.99;101541.22;4966776;28;20086;-53
2022/08/12 05:32:56;;;;;;;4.88;2.50;;;;;;;19.73;48.68;101545.34;4970683;28;20051;-55
2022/08/12 05:35:26;;;;;;;9.40;2.35;;;;;;;19.87;48.52;101548.69;4969832;28;20055;-56
2022/08/12 05:38:55;;;;;;;5.75;2.22;;;;;;;19.97;48.03;101547.78;4952618;28;20065;-57
2022/08/12 05:40:41;;;;;;;7.22;2.22;;;;;;;20.08;47.94;101546.00;4967770;28;20047;-59
2022/08/12 05:43:08;;;;;;;12.40;2.70;;;;;;;20.13;47.92;101547.34;4970550;28;20154;-55
2022/08/12 05:45:35;;;;;;;5.65;2.72;;;;;;;20.20;47.71;101551.19;4970312;28;20131;-55
2022/08/12 05:48:08;;;;;;;9.10;2.50;;;;;;;20.30;47.51;101548.56;4986298;28;20078;-57
2022/08/12 05:50:36;;;;;;;8.43;2.60;;;;;;;20.40;47.74;101554.00;4983740;28;20061;-57
2022/08/12 05:53:03;;;;;;;6.28;2.47;;;;;;;20.47;47.14;101556.03;4975356;28;20066;-60
2022/08/12 05:55:30;;;;;;;8.18;2.88;;;;;;;20.59;46.91;101553.28;4969173;28;20644;-56
2022/08/12 05:57:57;;;;;;;7.68;2.67;;;;;;;20.65;46.80;101550.06;4967618;28;20050;-59
2022/08/12 06:00:25;;;;;;;3.92;2.22;;;;;;;20.74;46.36;101558.13;4968926;28;20059;-55
2022/08/12 06:02:59;;;;;;;9.18;2.70;;;;;;;20.83;46.24;101558.31;4964180;28;20051;-58
2022/08/12 06:05:28;;;;;;;8.40;2.55;;;;;;;20.92;46.10;101549.47;4968259;28;20065;-57
2022/08/12 06:07:56;;;;;;;8.00;2.55;;;;;;;20.99;45.95;101558.69;4974413;28;20050;-55
2022/08/12 06:10:31;;;;;;;8.63;2.40;;;;;;;21.02;45.83;101558.38;4969960;28;20442;-61
2022/08/12 06:13:04;;;;;;;9.38;2.50;;;;;;;21.14;45.61;101567.19;4974249;28;20062;-54
2022/08/12 06:15:34;;;;;;;5.78;2.35;;;;;;;21.25;45.69;101564.38;4964664;28;20097;-57
2022/08/12 06:18:06;;;;;;;5.82;2.63;;;;;;;21.36;45.32;101558.13;4973442;28;20050;-54
2022/08/12 06:20:42;;;;;;;5.70;2.15;;;;;;;21.41;45.20;101561.22;4971954;28;20055;-56
2022/08/12 06:23:10;;;;;;;3.97;2.50;;;;;;;21.53;45.02;101568.16;4973685;28;20108;-56
2022/08/12 06:25:38;;;;;;;4.32;2.38;;;;;;;21.63;44.53;101566.34;4971937;28;20409;-57
2022/08/12 06:28:20;;;;;;;4.85;2.53;;;;;;;21.77;44.47;101559.72;4973359;28;20059;-57
2022/08/12 06:30:47;;;;;;;6.13;2.20;;;;;;;21.91;43.73;101579.88;4971800;28;20050;-55
2022/08/12 06:33:34;;;;;;;6.75;2.25;;;;;;;22.02;43.91;101566.34;4970521;28;20058;-58
2022/08/12 06:36:23;;;;;;;5.22;2.05;;;;;;;22.11;43.77;101570.88;4962816;28;20047;-57
2022/08/12 06:38:55;;;;;;;3.70;2.15;;;;;;;22.21;43.04;101565.53;4967147;28;20073;-55
2022/08/12 06:44:29;;;;;;;4.90;1.85;;;;;;;22.41;42.37;101567.16;4972640;28;20063;-57
2022/08/12 06:46:56;;;;;;;5.32;1.75;;;;;;;22.50;42.31;101563.63;4970860;28;20245;-57
2022/08/12 06:49:24;;;;;;;6.88;2.00;;;;;;;22.62;41.98;101556.25;4972731;28;20047;-57
2022/08/12 06:51:54;;;;;;;6.65;1.80;;;;;;;22.74;41.31;101559.59;4955700;28;20057;-57
2022/08/12 06:54:26;;;;;;;1.90;1.30;;;;;;;22.87;41.41;101560.09;4968347;28;20051;-58
2022/08/12 06:57:01;;;;;;;;;;;;;;;22.99;40.87;101558.09;4968276;28;20054;-56
2022/08/12 06:59:49;;;;;;;5.32;2.00;;;;;;;23.14;40.45;101556.59;4961312;28;20268;-58
2022/08/12 07:02:19;;;;;;;4.47;1.73;;;;;;;23.24;40.37;101561.94;4972800;28;20139;-56
2022/08/12 07:04:46;;;;;;;2.90;1.83;;;;;;;23.31;40.40;101563.03;4970849;28;20061;-59
2022/08/12 07:07:13;;;;;;;5.80;1.70;;;;;;;23.40;40.40;101569.34;4972108;28;20070;-57
2022/08/12 07:09:41;;;;;;;8.70;1.83;;;;;;;23.50;39.74;101559.34;4971315;28;20066;-60
2022/08/12 07:12:29;;;;;;;3.80;1.52;;;;;;;23.63;39.54;101564.38;4968820;28;20127;-58
2022/08/12 07:14:57;;;;;;;4.60;1.70;;;;;;;23.76;39.44;101559.50;4968840;28;20245;-58
2022/08/12 07:17:34;;;;;;;7.13;1.88;;;;;;;23.85;38.93;101561.25;4972260;28;20066;-56
2022/08/12 07:20:08;;;;;;;5.72;1.92;;;;;;;23.92;38.56;101569.56;4970971;28;20574;-58
2022/08/12 07:22:38;;;;;;;11.93;1.63;;;;;;;23.97;38.39;101559.19;4972145;28;20047;-58
2022/08/12 07:27:53;;;;;;;4.43;1.25;;;;;;;24.23;38.25;101568.16;4966896;28;20050;-56
2022/08/12 07:30:21;;;;;;;8.07;1.52;;;;;;;24.35;37.98;101565.19;4970372;28;20126;-56
2022/08/12 07:32:50;;;;;;;9.93;1.52;;;;;;;24.49;37.74;101564.63;4971568;28;20054;-56
2022/08/12 07:35:18;;;;;;;7.82;1.75;;;;;;;24.56;37.44;101570.25;4969738;28;20047;-58
2022/08/12 07:37:46;;;;;;;6.72;1.50;;;;;;;24.60;37.39;101572.47;4970498;28;20071;-57
2022/08/12 07:40:14;;;;;;;4.60;1.13;;;;;;;24.62;37.08;101570.44;4969004;28;20054;-55
2022/08/12 07:42:42;;;;;;;4.28;1.20;;;;;;;24.71;37.24;101572.19;4971594;28;20065;-58
2022/08/12 07:45:11;;;;;;;6.13;1.70;;;;;;;24.78;36.80;101569.69;4970118;28;20407;-56
2022/08/12 07:47:42;;;;;;;8.48;1.50;;;;;;;24.80;37.01;101575.75;4971155;28;20050;-57
2022/08/12 07:50:11;;;;;;;5.53;2.92;;;;;;;24.93;36.61;101569.94;4964782;28;20058;-58
2022/08/12 07:52:41;;;;;;;8.85;1.77;;;;;;;24.99;36.83;101569.28;4972019;28;20518;-58
2022/08/12 07:55:10;;;;;;;3.60;1.10;;;;;;;25.13;36.44;101571.41;4961001;28;20562;-57
2022/08/12 07:57:52;;;;;;;11.07;1.33;;;;;;;25.29;36.13;101575.16;4971279;28;20066;-55
2022/08/12 08:00:19;;;;;;;4.88;1.40;;;;;;;25.32;36.11;101573.00;4970087;28;20543;-57
2022/08/12 08:02:48;;;;;;;3.78;1.60;;;;;;;25.43;36.20;101569.97;4971645;28;20142;-57
2022/08/12 08:05:15;;;;;;;6.03;1.35;;;;;;;25.56;35.68;101569.50;4969303;28;20065;-54
2022/08/12 08:07:42;;;;;;;3.75;1.63;;;;;;;25.64;35.87;101571.38;4971033;28;20587;-57
2022/08/12 08:10:10;;;;;;;4.53;1.55;;;;;;;25.70;35.35;101568.84;4952484;28;20177;-53
2022/08/12 08:12:53;;;;;;;4.60;1.30;;;;;;;25.82;35.39;101564.03;4970853;28;20062;-56
2022/08/12 08:15:22;;;;;;;3.33;1.70;;;;;;;25.94;35.57;101567.25;4968983;28;20051;-53
2022/08/12 08:18:11;;;;;;;5.85;1.50;;;;;;;25.99;35.02;101565.72;4970814;28;20046;-57
2022/08/12 08:20:54;;;;;;;5.53;1.85;;;;;;;26.14;34.80;101563.19;4969662;28;20046;-56
2022/08/12 08:23:21;;;;;;;4.45;1.38;;;;;;;26.21;34.15;101560.66;4965884;28;20057;-56
2022/08/12 08:26:01;;;;;;;5.10;1.92;;;;;;;26.32;34.20;101554.06;4962505;28;20503;-57
2022/08/12 08:28:28;;;;;;;5.35;1.20;;;;;;;26.46;33.82;101558.78;4970595;28;20059;-59
2022/08/12 08:30:55;;;;;;;3.55;1.17;;;;;;;26.48;33.61;101549.50;4969050;28;20055;-58
2022/08/12 08:33:23;;;;;;;3.67;0.90;;;;;;;26.60;33.67;101549.97;4969953;28;20530;-56
2022/08/12 08:36:10;;;;;;;5.72;1.08;;;;;;;26.73;33.18;101555.66;4969531;28;20211;-58
2022/08/12 08:38:49;;;;;;;1.65;0.80;;;;;;;26.85;33.07;101558.00;4970639;28;20046;-55
2022/08/12 08:44:35;;;;;;;5.03;1.13;;;;;;;27.12;32.63;101559.47;4970546;28;20061;-55
2022/08/12 08:47:04;;;;;;;6.97;1.33;;;;;;;27.21;32.38;101553.00;4969267;28;20050;-57
2022/08/12 08:49:31;;;;;;;1.42;1.00;;;;;;;27.31;32.19;101550.91;4964238;28;20051;-58
2022/08/12 08:52:04;;;;;;;7.03;1.35;;;;;;;27.43;31.85;101551.34;4969394;28;20057;-56
2022/08/12 08:54:32;;;;;;;5.38;1.33;;;;;;;27.38;31.31;101554.59;4968875;28;20357;-54
2022/08/12 08:57:00;;;;;;;4.38;1.10;;;;;;;27.37;31.29;101552.88;4967559;28;20057;-53
2022/08/12 08:59:27;;;;;;;3.78;0.93;;;;;;;27.43;31.65;101548.66;4970115;28;20078;-57
2022/08/12 09:01:55;;;;;;;4.38;1.15;;;;;;;27.51;31.56;101546.72;4968698;28;20065;-56
2022/08/12 09:04:24;;;;;;;4.50;1.00;;;;;;;27.65;31.21;101547.81;4970512;28;20043;-52
2022/08/12 09:07:11;;;;;;;3.30;1.20;;;;;;;27.74;30.91;101552.19;4968904;28;20051;-56
2022/08/12 09:09:44;;;;;;;2.13;1.00;;;;;;;27.80;30.45;101552.47;4969087;28;20061;-56
2022/08/12 09:15:37;;;;;;;2.15;1.05;;;;;;;28.06;29.17;101544.81;4966684;28;20051;-56
2022/08/12 09:18:09;;;;;;;2.47;1.20;;;;;;;28.07;29.23;101551.06;4970429;28;20043;-56
2022/08/12 09:20:38;;;;;;;2.30;0.90;;;;;;;28.09;29.20;101541.72;4967873;28;20332;-56
2022/08/12 09:23:09;;;;;;;3.13;1.10;;;;;;;28.11;29.38;101552.38;4962812;28;20057;-55
2022/08/12 09:25:59;;;;;;;2.28;1.20;;;;;;;28.17;29.14;101546.22;4961754;28;20051;-54
2022/08/12 09:28:32;;;;;;;4.47;1.27;;;;;;;28.23;28.97;101551.75;4972149;28;20407;-58
2022/08/12 09:31:00;;;;;;;4.38;1.40;;;;;;;28.35;28.67;101540.50;4966731;28;20043;-57
2022/08/12 09:33:33;;;;;;;5.32;1.33;;;;;;;28.41;28.90;101531.63;4969733;28;20054;-56
2022/08/12 09:36:21;;;;;;;8.82;1.27;;;;;;;28.50;28.59;101533.22;4965892;28;20047;-54
2022/08/12 09:38:59;;;;;;;4.95;1.20;;;;;;;28.58;28.78;101538.56;4973252;28;20507;-52
2022/08/12 09:41:27;;;;;;;5.78;1.63;;;;;;;28.72;28.62;101537.72;5001694;23;20573;-59
2022/08/12 09:47:06;;;;;;;4.15;1.08;;;;;;;28.97;28.08;101526.59;4990884;28;20054;-59
2022/08/12 09:49:36;;;;;;;4.30;1.23;;;;;;;29.01;27.93;101525.19;4989019;28;20050;-59
2022/08/12 09:52:14;;;;;;;2.30;1.10;;;;;;;29.15;27.79;101513.47;4986576;28;20482;-57
2022/08/12 09:54:41;;;;;;;7.45;1.10;;;;;;;29.23;27.84;101513.38;4976354;28;20062;-58
2022/08/12 09:57:10;;;;;;;4.13;1.02;;;;;;;29.34;27.51;101519.31;4979654;28;20074;-59
2022/08/12 09:59:57;;;;;;;8.23;1.27;;;;;;;29.41;26.92;101518.38;4968701;28;20046;-59
2022/08/12 10:03:05;;;;;;;5.32;1.30;;;;;;;29.30;26.67;101513.44;4989205;28;20042;-59
2022/08/12 10:05:35;;;;;;;3.33;1.20;;;;;;;29.41;26.81;101507.50;4978146;28;20503;-59
2022/08/12 10:08:26;;;;;;;6.10;1.20;;;;;;;29.55;26.45;101505.81;4972167;28;20065;-60
2022/08/12 10:13:48;;;;;;;4.53;1.70;;;;;;;29.70;26.04;101503.84;4986249;28;20047;-60
2022/08/12 10:16:21;;;;;;;4.65;1.23;;;;;;;29.61;25.78;101499.59;4974700;28;20039;-60
2022/08/12 10:18:54;;;;;;;3.80;0.80;;;;;;;29.71;26.39;101491.94;4975967;28;20077;-56
2022/08/12 10:21:25;;;;;;;2.55;1.02;;;;;;;29.84;26.11;101493.09;4958675;28;20054;-59
2022/08/12 10:24:04;;;;;;;4.72;1.10;;;;;;;29.88;25.52;101487.09;4986437;28;20047;-58
2022/08/12 10:32:23;;;;;;;3.55;1.10;;;;;;;30.13;25.64;101482.06;4976286;28;20051;-58
2022/08/12 10:35:12;;;;;;;4.22;1.55;;;;;;;30.16;25.71;101481.69;4988937;28;20050;-59
2022/08/12 10:37:40;;;;;;;1.98;1.27;;;;;;;30.26;25.71;101478.59;4992213;28;20061;-58
2022/08/12 10:40:29;;;;;;;5.70;1.63;;;;;;;30.36;25.36;101464.69;4973030;28;20058;-61
2022/08/12 10:45:55;;;;;;;6.78;1.30;;;;;;;30.39;24.81;101466.97;4958876;28;20109;-60
2022/08/12 10:48:25;;;;;;;2.92;1.10;;;;;;;30.34;25.45;101464.88;4976211;28;20047;-61
2022/08/12 10:51:04;;;;;;;3.90;1.35;;;;;;;30.55;25.37;101455.78;4974259;28;20054;-57
2022/08/12 10:53:55;;;;;;;4.88;1.52;;;;;;;30.80;25.18;101456.13;4981125;28;20051;-59
2022/08/12 10:56:31;;;;;;;5.63;1.35;;;;;;;30.95;25.01;101454.09;4970423;28;20051;-57
2022/08/12 10:59:04;;;;;;;3.70;1.45;;;;;;;31.12;25.16;101459.19;4975318;28;20411;-57
2022/08/12 11:01:37;;;;;;;11.95;3.72;;;;;;;31.30;24.10;101458.59;4989649;28;20054;-59
2022/08/12 11:04:28;;;;;;;4.60;1.45;;;;;;;31.39;24.63;101454.66;4989397;28;20173;-59
2022/08/12 11:07:09;;;;;;;2.67;1.10;;;;;;;31.57;24.16;101460.31;4963425;28;20057;-59
2022/08/12 11:09:57;;;;;;;8.07;1.45;;;;;;;31.52;23.48;101455.50;4981686;28;20486;-57
2022/08/12 11:12:31;;;;;;;1.88;1.20;;;;;;;31.69;23.65;101458.63;4987723;28;20607;-58
2022/08/12 11:15:20;;;;;;;2.63;0.88;;;;;;;31.80;23.18;101451.72;4974294;28;20051;-60
2022/08/12 11:18:07;;;;;;;8.15;1.45;;;;;;;32.06;23.76;101456.31;4982153;28;20543;-60
2022/08/12 11:20:45;;;;;;;7.00;1.60;;;;;;;32.25;23.14;101455.44;4979230;28;20073;-56
2022/08/12 11:23:12;;;;;;;6.35;1.60;;;;;;;32.36;22.70;101453.94;4986043;28;20042;-60
2022/08/12 11:25:59;;;;;;;2.08;1.30;;;;;;;32.62;22.74;101438.59;4971425;28;20059;-59
2022/08/12 11:28:32;;;;;;;5.75;1.17;;;;;;;32.81;22.95;101445.81;4990035;28;20114;-59
2022/08/12 11:31:07;;;;;;;4.18;1.33;;;;;;;33.00;22.09;101436.72;4978121;28;20050;-61
2022/08/12 11:33:41;;;;;;;1.88;1.00;;;;;;;33.13;21.91;101438.53;4982248;28;20061;-59
2022/08/12 11:36:29;;;;;;;9.55;1.65;;;;;;;32.97;21.84;101433.63;4984211;28;20050;-60
2022/08/12 11:38:57;;;;;;;10.60;2.58;;;;;;;33.04;21.87;101434.41;4975716;28;20046;-59
2022/08/12 11:41:24;;;;;;;3.63;1.50;;;;;;;33.19;21.72;101434.94;4984034;28;20518;-60
2022/08/12 11:43:59;;;;;;;3.72;1.30;;;;;;;33.26;21.30;101435.72;4962168;28;20142;-56
2022/08/12 11:46:47;;;;;;;3.63;1.40;;;;;;;33.37;21.59;101426.00;4971520;28;20065;-58
2022/08/12 11:49:23;;;;;;;2.95;1.33;;;;;;;33.34;21.59;101429.16;4985695;28;20486;-56
2022/08/12 11:52:02;;;;;;;4.95;1.20;;;;;;;33.48;21.90;101422.56;4974897;28;20054;-59
2022/08/12 11:54:29;;;;;;;8.90;1.95;;;;;;;33.66;21.76;101426.41;4978353;28;20495;-59
2022/08/12 11:56:58;;;;;;;4.65;1.55;;;;;;;33.65;21.61;101419.28;4976564;28;20054;-59
2022/08/12 11:59:30;;;;;;;4.72;1.98;;;;;;;33.77;21.71;101422.94;4986594;28;20418;-58
2022/08/12 12:02:17;;;;;;;7.03;1.40;;;;;;;33.91;21.29;101412.69;4974538;28;20344;-58
2022/08/12 12:04:50;;;;;;;6.88;1.35;;;;;;;33.94;21.24;101417.72;4980605;28;20050;-60
2022/08/12 12:07:21;;;;;;;1.38;1.10;;;;;;;34.18;20.80;101414.16;4990097;28;20414;-61
2022/08/12 12:10:10;;;;;;;3.05;1.30;;;;;;;34.38;20.48;101418.53;4966434;28;20055;-59
2022/08/12 12:12:38;;;;;;;4.30;1.15;;;;;;;34.44;20.65;101412.13;4978492;28;20061;-59
2022/08/12 12:15:14;;;;;;;2.33;1.38;;;;;;;34.21;20.65;101408.19;4988169;28;20042;-65
2022/08/12 12:17:52;;;;;;;1.75;1.10;;;;;;;34.38;20.20;101413.06;4977455;28;20058;-60
2022/08/12 12:20:22;;;;;;;1.38;0.90;;;;;;;34.48;20.23;101410.66;4970273;28;20396;-59
2022/08/12 12:22:53;;;;;;;1.75;1.10;;;;;;;34.70;20.47;101402.78;4981129;28;20529;-56
2022/08/12 12:25:21;;;;;;;3.42;1.33;;;;;;;34.85;20.09;101408.66;4979875;28;20070;-60
2022/08/12 12:28:08;;;;;;;5.28;2.10;;;;;;;35.03;19.96;101409.69;4978139;28;20065;-60
2022/08/12 12:30:55;;;;;;;3.22;1.30;;;;;;;35.34;19.43;101403.09;4969655;28;20054;-59
2022/08/12 12:33:22;;;;;;;2.42;1.30;;;;;;;35.46;20.08;101407.56;4982955;28;20067;-57
2022/08/12 12:35:49;;;;;;;3.33;1.20;;;;;;;35.68;19.44;101399.59;4985952;28;20310;-60
2022/08/12 12:38:36;;;;;;;7.18;1.30;;;;;;;35.60;19.57;101410.06;4978639;28;20319;-59
2022/08/12 12:41:04;;;;;;;2.72;1.20;;;;;;;35.73;19.15;101394.22;4975390;28;20129;-60
2022/08/12 12:43:43;;;;;;;8.20;1.35;;;;;;;35.82;18.85;101389.22;4984479;28;20519;-60
2022/08/12 12:46:29;;;;;;;5.68;1.35;;;;;;;36.04;19.26;101384.00;4980104;28;20408;-60
2022/08/12 12:48:56;;;;;;;5.95;1.65;;;;;;;36.17;18.53;101386.47;4974823;28;20050;-59
2022/08/12 12:51:23;;;;;;;6.85;1.20;;;;;;;36.19;18.94;101384.31;4979884;28;20507;-60
2022/08/12 12:54:11;;;;;;;3.50;1.08;;;;;;;36.38;18.67;101384.13;4961519;28;20496;-59
2022/08/12 12:56:40;;;;;;;2.45;1.50;;;;;;;36.53;18.12;101376.25;4959482;28;20047;-60
2022/08/12 12:59:09;;;;;;;3.25;1.58;;;;;;;36.50;18.53;101376.72;4981427;28;20049;-60
2022/08/12 13:02:51;;;;;;;7.40;1.30;;;;;;;36.64;18.08;101386.31;4972371;28;20070;-62
2022/08/12 13:05:30;;;;;;;6.40;1.45;;;;;;;36.57;17.80;101377.44;4963567;28;20059;-62
2022/08/12 13:08:23;;;;;;;3.80;1.15;;;;;;;36.68;18.16;101376.53;4977929;28;20061;-63
2022/08/12 13:11:00;;;;;;;3.40;1.40;;;;;;;36.89;17.96;101374.16;4968123;28;20467;-58
2022/08/12 13:13:28;;;;;;;2.40;1.27;;;;;;;36.90;17.68;101382.16;4984076;28;20561;-58
2022/08/12 13:16:19;;;;;;;4.13;1.52;;;;;;;36.71;17.20;101376.06;4981726;28;20057;-56
2022/08/12 13:18:50;;;;;;;6.10;1.52;;;;;;;36.41;17.56;101375.44;4986874;28;20055;-60
2022/08/12 13:21:18;;;;;;;2.78;1.42;;;;;;;36.37;17.89;101369.59;4986114;28;20054;-58
2022/08/12 13:24:03;;;;;;;4.15;1.50;;;;;;;36.75;17.81;101374.47;4982144;28;20065;-58
2022/08/12 13:26:38;;;;;;;2.97;1.40;;;;;;;37.16;17.85;101374.41;4988548;28;20050;-59
2022/08/12 13:29:06;;;;;;;18.13;2.22;;;;;;;37.18;17.70;101373.03;4975555;28;20539;-58
2022/08/12 13:31:40;;;;;;;4.28;1.55;;;;;;;36.94;17.80;101379.78;4978129;28;20145;-56
2022/08/12 13:34:27;;;;;;;5.80;1.60;;;;;;;36.41;18.23;101379.00;4964425;28;20507;-59
2022/08/12 13:37:03;;;;;;;;;;;;;;;35.94;18.37;101379.09;4972506;28;20065;-58
2022/08/12 13:39:36;;;;;;;7.90;1.65;;;;;;;35.41;18.95;101384.69;4979673;28;19922;-58
2022/08/12 13:42:08;;;;;;;4.57;1.45;;;;;;;35.05;19.17;101370.09;4984698;28;20064;-56
2022/08/12 13:44:41;;;;;;;3.67;1.60;;;;;;;34.72;19.33;101368.69;4975731;28;20412;-57
2022/08/12 13:47:09;;;;;;;1.65;1.23;;;;;;;34.41;19.96;101368.88;4974293;28;20138;-59
2022/08/12 13:49:48;;;;;;;5.18;1.90;;;;;;;34.07;20.28;101362.97;4990073;28;20061;-57